sensor_id;sensor_type;location;lat;lon;timestamp;pressure;altitude;pressure_sealevel;temperature;humidity
82575;BME280;72260;65.870;13.210;2023-09-19T00:00:05;99362.06;;;11.81;59.45
82575;BME280;72260;65.870;13.210;2023-09-19T00:02:31;99353.47;;;11.98;58.91
82575;BME280;72260;65.870;13.210;2023-09-19T00:04:58;99339.81;;;11.93;59.22
82575;BME280;72260;65.870;13.210;2023-09-19T00:07:23;99337.59;;;11.98;59.02
82575;BME280;72260;65.870;13.210;2023-09-19T00:09:49;99339.31;;;11.78;59.63
82575;BME280;72260;65.870;13.210;2023-09-19T00:12:14;99323.22;;;11.61;60.41
82575;BME280;72260;65.870;13.210;2023-09-19T00:14:40;99335.50;;;11.71;59.46
82575;BME280;72260;65.870;13.210;2023-09-19T00:17:05;99324.22;;;11.69;60.61
82575;BME280;72260;65.870;13.210;2023-09-19T00:19:36;99318.50;;;11.64;60.73
82575;BME280;72260;65.870;13.210;2023-09-19T00:22:02;99317.06;;;11.91;59.79
82575;BME280;72260;65.870;13.210;2023-09-19T00:24:28;99322.53;;;11.99;59.00
82575;BME280;72260;65.870;13.210;2023-09-19T00:26:54;99320.84;;;11.98;59.53
82575;BME280;72260;65.870;13.210;2023-09-19T00:29:21;99321.69;;;11.98;58.83
82575;BME280;72260;65.870;13.210;2023-09-19T00:31:46;99306.75;;;11.88;59.32
82575;BME280;72260;65.870;13.210;2023-09-19T00:34:12;99306.75;;;11.88;59.43
82575;BME280;72260;65.870;13.210;2023-09-19T00:36:37;99299.91;;;11.85;58.77
82575;BME280;72260;65.870;13.210;2023-09-19T00:39:08;99296.59;;;11.93;59.58
82575;BME280;72260;65.870;13.210;2023-09-19T00:41:34;99290.81;;;11.78;60.98
82575;BME280;72260;65.870;13.210;2023-09-19T00:44:02;99294.66;;;11.74;60.98
82575;BME280;72260;65.870;13.210;2023-09-19T00:46:28;99278.06;;;11.62;62.80
82575;BME280;72260;65.870;13.210;2023-09-19T00:48:54;99286.84;;;11.72;62.77
82575;BME280;72260;65.870;13.210;2023-09-19T00:51:20;99286.84;;;11.63;62.83
82575;BME280;72260;65.870;13.210;2023-09-19T00:53:47;99283.91;;;11.56;62.49
82575;BME280;72260;65.870;13.210;2023-09-19T00:56:14;99281.53;;;11.53;64.18
82575;BME280;72260;65.870;13.210;2023-09-19T00:58:40;99280.19;;;11.38;63.52
82575;BME280;72260;65.870;13.210;2023-09-19T01:01:06;99278.81;;;11.34;65.35
82575;BME280;72260;65.870;13.210;2023-09-19T01:03:33;99266.16;;;11.47;64.75
82575;BME280;72260;65.870;13.210;2023-09-19T01:05:59;99252.31;;;11.64;63.99
82575;BME280;72260;65.870;13.210;2023-09-19T01:08:26;99242.59;;;11.34;65.40
82575;BME280;72260;65.870;13.210;2023-09-19T01:11:11;99252.13;;;11.56;65.14
82575;BME280;72260;65.870;13.210;2023-09-19T01:13:51;99250.41;;;11.45;65.28
82575;BME280;72260;65.870;13.210;2023-09-19T01:16:35;99243.84;;;11.30;67.35
82575;BME280;72260;65.870;13.210;2023-09-19T01:21:49;99232.81;;;11.25;67.01
82575;BME280;72260;65.870;13.210;2023-09-19T01:30:14;99223.38;;;11.32;66.79
82575;BME280;72260;65.870;13.210;2023-09-19T01:32:42;99219.06;;;11.31;66.53
82575;BME280;72260;65.870;13.210;2023-09-19T01:35:09;99207.31;;;11.24;68.83
82575;BME280;72260;65.870;13.210;2023-09-19T01:37:38;99213.16;;;11.18;68.49
82575;BME280;72260;65.870;13.210;2023-09-19T01:40:09;99196.75;;;11.24;67.15
82575;BME280;72260;65.870;13.210;2023-09-19T01:45:59;99198.38;;;11.16;68.74
82575;BME280;72260;65.870;13.210;2023-09-19T01:48:41;99197.31;;;11.28;68.53
82575;BME280;72260;65.870;13.210;2023-09-19T01:51:14;99186.28;;;11.23;68.99
82575;BME280;72260;65.870;13.210;2023-09-19T01:53:55;99193.66;;;11.19;70.82
82575;BME280;72260;65.870;13.210;2023-09-19T01:56:42;99186.38;;;11.02;70.68
82575;BME280;72260;65.870;13.210;2023-09-19T01:59:13;99192.94;;;11.17;71.38
82575;BME280;72260;65.870;13.210;2023-09-19T02:01:42;99184.38;;;10.94;72.30
82575;BME280;72260;65.870;13.210;2023-09-19T02:04:10;99184.50;;;10.93;73.36
82575;BME280;72260;65.870;13.210;2023-09-19T02:06:39;99179.03;;;10.85;74.04
82575;BME280;72260;65.870;13.210;2023-09-19T02:09:05;99162.00;;;10.98;73.17
82575;BME280;72260;65.870;13.210;2023-09-19T02:11:31;99174.72;;;10.84;74.08
82575;BME280;72260;65.870;13.210;2023-09-19T02:13:56;99151.63;;;10.86;73.53
82575;BME280;72260;65.870;13.210;2023-09-19T02:16:22;99151.56;;;11.06;73.65
82575;BME280;72260;65.870;13.210;2023-09-19T02:18:49;99149.63;;;11.08;74.21
82575;BME280;72260;65.870;13.210;2023-09-19T02:21:15;99134.34;;;10.82;75.17
82575;BME280;72260;65.870;13.210;2023-09-19T02:23:41;99136.03;;;10.83;74.93
82575;BME280;72260;65.870;13.210;2023-09-19T02:26:07;99140.56;;;11.01;73.90
82575;BME280;72260;65.870;13.210;2023-09-19T02:28:33;99121.97;;;10.82;75.71
82575;BME280;72260;65.870;13.210;2023-09-19T02:30:59;99119.72;;;10.77;75.71
82575;BME280;72260;65.870;13.210;2023-09-19T02:33:24;99123.22;;;10.78;75.07
82575;BME280;72260;65.870;13.210;2023-09-19T02:35:54;99114.84;;;10.73;74.35
82575;BME280;72260;65.870;13.210;2023-09-19T02:38:20;99114.41;;;10.68;76.47
82575;BME280;72260;65.870;13.210;2023-09-19T02:40:50;99115.78;;;10.62;76.55
82575;BME280;72260;65.870;13.210;2023-09-19T02:43:15;99089.16;;;10.54;77.14
82575;BME280;72260;65.870;13.210;2023-09-19T02:45:40;99090.50;;;10.39;78.65
82575;BME280;72260;65.870;13.210;2023-09-19T02:48:06;99087.22;;;10.56;78.01
82575;BME280;72260;65.870;13.210;2023-09-19T02:50:34;99072.16;;;10.37;79.53
82575;BME280;72260;65.870;13.210;2023-09-19T02:52:59;99059.19;;;10.34;80.03
82575;BME280;72260;65.870;13.210;2023-09-19T02:55:25;99060.00;;;10.14;79.04
82575;BME280;72260;65.870;13.210;2023-09-19T02:57:54;99062.69;;;10.35;78.81
82575;BME280;72260;65.870;13.210;2023-09-19T03:00:22;99055.88;;;10.42;78.89
82575;BME280;72260;65.870;13.210;2023-09-19T03:02:54;99048.13;;;10.50;78.36
82575;BME280;72260;65.870;13.210;2023-09-19T03:05:21;99044.03;;;10.67;78.13
82575;BME280;72260;65.870;13.210;2023-09-19T03:07:47;99041.06;;;10.60;77.60
82575;BME280;72260;65.870;13.210;2023-09-19T03:10:17;99031.47;;;10.59;78.81
82575;BME280;72260;65.870;13.210;2023-09-19T03:12:43;99023.50;;;10.50;78.81
82575;BME280;72260;65.870;13.210;2023-09-19T03:15:09;99017.94;;;10.53;78.23
82575;BME280;72260;65.870;13.210;2023-09-19T03:17:35;99012.25;;;10.57;78.08
82575;BME280;72260;65.870;13.210;2023-09-19T03:20:01;99000.84;;;10.57;78.57
82575;BME280;72260;65.870;13.210;2023-09-19T03:22:28;98986.91;;;10.35;80.04
82575;BME280;72260;65.870;13.210;2023-09-19T03:24:53;98995.66;;;10.36;79.84
82575;BME280;72260;65.870;13.210;2023-09-19T03:27:22;98988.72;;;10.44;79.88
82575;BME280;72260;65.870;13.210;2023-09-19T03:29:48;98982.19;;;10.49;79.42
82575;BME280;72260;65.870;13.210;2023-09-19T03:32:14;98980.81;;;10.54;79.24
82575;BME280;72260;65.870;13.210;2023-09-19T03:34:40;98971.69;;;10.68;77.54
82575;BME280;72260;65.870;13.210;2023-09-19T03:37:11;98974.00;;;10.52;78.22
82575;BME280;72260;65.870;13.210;2023-09-19T03:39:37;98964.97;;;10.54;77.67
82575;BME280;72260;65.870;13.210;2023-09-19T03:42:03;98960.63;;;10.53;78.24
82575;BME280;72260;65.870;13.210;2023-09-19T03:44:32;98947.03;;;10.58;77.27
82575;BME280;72260;65.870;13.210;2023-09-19T03:46:58;98953.97;;;10.59;78.32
82575;BME280;72260;65.870;13.210;2023-09-19T03:49:23;98937.69;;;10.54;78.47
82575;BME280;72260;65.870;13.210;2023-09-19T03:51:49;98944.22;;;10.50;78.66
82575;BME280;72260;65.870;13.210;2023-09-19T03:54:14;98932.56;;;10.62;78.39
82575;BME280;72260;65.870;13.210;2023-09-19T03:56:46;98919.72;;;10.48;79.35
82575;BME280;72260;65.870;13.210;2023-09-19T03:59:12;98919.44;;;10.41;80.13
82575;BME280;72260;65.870;13.210;2023-09-19T04:01:40;98918.19;;;10.45;80.29
82575;BME280;72260;65.870;13.210;2023-09-19T04:04:06;98919.31;;;10.42;80.39
82575;BME280;72260;65.870;13.210;2023-09-19T04:06:35;98919.31;;;10.52;80.03
82575;BME280;72260;65.870;13.210;2023-09-19T04:09:03;98892.63;;;10.46;79.73
82575;BME280;72260;65.870;13.210;2023-09-19T04:11:30;98875.78;;;10.27;80.54
82575;BME280;72260;65.870;13.210;2023-09-19T04:13:56;98897.19;;;10.34;80.90
82575;BME280;72260;65.870;13.210;2023-09-19T04:16:22;98905.38;;;10.21;81.33
82575;BME280;72260;65.870;13.210;2023-09-19T04:18:47;98894.31;;;10.16;81.69
82575;BME280;72260;65.870;13.210;2023-09-19T04:21:13;98896.72;;;10.19;81.66
82575;BME280;72260;65.870;13.210;2023-09-19T04:23:39;98901.63;;;10.24;82.91
82575;BME280;72260;65.870;13.210;2023-09-19T04:26:04;98898.72;;;10.27;79.45
82575;BME280;72260;65.870;13.210;2023-09-19T04:28:31;98881.91;;;10.37;79.86
82575;BME280;72260;65.870;13.210;2023-09-19T04:30:57;98865.47;;;10.24;80.73
82575;BME280;72260;65.870;13.210;2023-09-19T04:33:24;98868.38;;;10.21;79.84
82575;BME280;72260;65.870;13.210;2023-09-19T04:35:50;98865.75;;;10.40;80.02
82575;BME280;72260;65.870;13.210;2023-09-19T04:38:18;98862.72;;;10.45;81.07
82575;BME280;72260;65.870;13.210;2023-09-19T04:40:44;98866.34;;;10.54;79.90
82575;BME280;72260;65.870;13.210;2023-09-19T04:43:09;98857.44;;;10.35;80.58
82575;BME280;72260;65.870;13.210;2023-09-19T04:45:35;98859.22;;;10.44;80.08
82575;BME280;72260;65.870;13.210;2023-09-19T04:48:00;98859.94;;;10.56;79.17
82575;BME280;72260;65.870;13.210;2023-09-19T04:50:26;98852.69;;;10.49;79.26
82575;BME280;72260;65.870;13.210;2023-09-19T04:52:53;98839.91;;;10.54;79.74
82575;BME280;72260;65.870;13.210;2023-09-19T04:55:19;98834.34;;;10.57;79.93
82575;BME280;72260;65.870;13.210;2023-09-19T04:57:51;98819.75;;;10.53;80.59
82575;BME280;72260;65.870;13.210;2023-09-19T05:00:20;98830.44;;;10.51;80.36
82575;BME280;72260;65.870;13.210;2023-09-19T05:02:49;98836.16;;;10.47;80.51
82575;BME280;72260;65.870;13.210;2023-09-19T05:05:16;98841.72;;;10.34;81.35
82575;BME280;72260;65.870;13.210;2023-09-19T05:07:45;98829.63;;;10.31;81.38
82575;BME280;72260;65.870;13.210;2023-09-19T05:10:11;98818.66;;;10.36;80.84
82575;BME280;72260;65.870;13.210;2023-09-19T05:12:40;98811.81;;;10.53;79.70
82575;BME280;72260;65.870;13.210;2023-09-19T05:15:06;98801.38;;;10.51;79.66
82575;BME280;72260;65.870;13.210;2023-09-19T05:17:33;98790.53;;;10.25;81.88
82575;BME280;72260;65.870;13.210;2023-09-19T05:19:59;98799.03;;;10.29;81.62
82575;BME280;72260;65.870;13.210;2023-09-19T05:22:29;98789.97;;;10.22;80.08
82575;BME280;72260;65.870;13.210;2023-09-19T05:24:55;98788.03;;;10.33;80.61
82575;BME280;72260;65.870;13.210;2023-09-19T05:27:20;98788.47;;;10.38;81.30
82575;BME280;72260;65.870;13.210;2023-09-19T05:29:46;98778.44;;;10.42;80.22
82575;BME280;72260;65.870;13.210;2023-09-19T05:32:12;98772.44;;;10.40;81.16
82575;BME280;72260;65.870;13.210;2023-09-19T05:34:38;98770.66;;;10.40;80.60
82575;BME280;72260;65.870;13.210;2023-09-19T05:37:04;98756.75;;;10.38;81.09
82575;BME280;72260;65.870;13.210;2023-09-19T05:39:33;98745.66;;;10.35;81.54
82575;BME280;72260;65.870;13.210;2023-09-19T05:41:58;98738.69;;;10.24;82.59
82575;BME280;72260;65.870;13.210;2023-09-19T05:44:25;98733.41;;;10.24;82.76
82575;BME280;72260;65.870;13.210;2023-09-19T05:46:51;98741.59;;;10.31;82.53
82575;BME280;72260;65.870;13.210;2023-09-19T05:49:18;98727.13;;;10.06;83.14
82575;BME280;72260;65.870;13.210;2023-09-19T05:51:46;98724.31;;;10.17;82.87
82575;BME280;72260;65.870;13.210;2023-09-19T05:54:12;98712.28;;;10.34;82.23
82575;BME280;72260;65.870;13.210;2023-09-19T05:56:38;98716.44;;;10.36;82.27
82575;BME280;72260;65.870;13.210;2023-09-19T05:59:03;98697.34;;;10.42;82.17
82575;BME280;72260;65.870;13.210;2023-09-19T06:01:30;98698.59;;;10.48;81.97
82575;BME280;72260;65.870;13.210;2023-09-19T06:03:57;98700.13;;;10.51;81.83
82575;BME280;72260;65.870;13.210;2023-09-19T06:06:25;98690.69;;;10.48;82.76
82575;BME280;72260;65.870;13.210;2023-09-19T06:08:50;98680.66;;;10.61;81.88
82575;BME280;72260;65.870;13.210;2023-09-19T06:11:16;98677.16;;;10.70;80.94
82575;BME280;72260;65.870;13.210;2023-09-19T06:13:41;98672.16;;;10.67;81.19
82575;BME280;72260;65.870;13.210;2023-09-19T06:16:07;98666.13;;;10.75;81.26
82575;BME280;72260;65.870;13.210;2023-09-19T06:18:34;98664.59;;;10.72;81.79
82575;BME280;72260;65.870;13.210;2023-09-19T06:21:00;98658.50;;;10.72;81.03
82575;BME280;72260;65.870;13.210;2023-09-19T06:23:26;98656.78;;;10.81;81.24
82575;BME280;72260;65.870;13.210;2023-09-19T06:25:54;98647.03;;;10.81;81.35
82575;BME280;72260;65.870;13.210;2023-09-19T06:28:19;98646.91;;;10.83;81.45
82575;BME280;72260;65.870;13.210;2023-09-19T06:30:49;98647.09;;;10.71;81.56
82575;BME280;72260;65.870;13.210;2023-09-19T06:33:15;98642.44;;;10.83;80.74
82575;BME280;72260;65.870;13.210;2023-09-19T06:35:40;98639.09;;;10.81;81.04
82575;BME280;72260;65.870;13.210;2023-09-19T06:38:07;98645.66;;;10.77;81.76
82575;BME280;72260;65.870;13.210;2023-09-19T06:40:34;98641.91;;;10.80;81.75
82575;BME280;72260;65.870;13.210;2023-09-19T06:43:00;98650.59;;;10.99;81.46
82575;BME280;72260;65.870;13.210;2023-09-19T06:45:27;98640.41;;;11.32;81.36
82575;BME280;72260;65.870;13.210;2023-09-19T06:47:53;98640.00;;;11.27;79.99
82575;BME280;72260;65.870;13.210;2023-09-19T06:50:24;98619.13;;;11.24;81.38
82575;BME280;72260;65.870;13.210;2023-09-19T06:52:51;98607.09;;;11.11;81.43
82575;BME280;72260;65.870;13.210;2023-09-19T06:55:21;98610.16;;;11.07;82.18
82575;BME280;72260;65.870;13.210;2023-09-19T06:57:50;98611.38;;;11.13;81.99
82575;BME280;72260;65.870;13.210;2023-09-19T07:00:16;98602.19;;;11.17;81.99
82575;BME280;72260;65.870;13.210;2023-09-19T07:02:44;98597.19;;;11.14;82.20
82575;BME280;72260;65.870;13.210;2023-09-19T07:05:10;98599.25;;;11.20;82.15
82575;BME280;72260;65.870;13.210;2023-09-19T07:07:35;98595.09;;;11.17;82.33
82575;BME280;72260;65.870;13.210;2023-09-19T07:10:02;98594.00;;;11.10;82.21
82575;BME280;72260;65.870;13.210;2023-09-19T07:12:28;98599.84;;;11.14;82.96
82575;BME280;72260;65.870;13.210;2023-09-19T07:14:53;98611.06;;;11.25;82.83
82575;BME280;72260;65.870;13.210;2023-09-19T07:17:20;98600.03;;;11.30;82.78
82575;BME280;72260;65.870;13.210;2023-09-19T07:19:46;98593.50;;;11.24;81.38
82575;BME280;72260;65.870;13.210;2023-09-19T07:22:13;98586.47;;;11.15;81.26
82575;BME280;72260;65.870;13.210;2023-09-19T07:24:38;98591.16;;;11.21;80.73
82575;BME280;72260;65.870;13.210;2023-09-19T07:27:04;98593.59;;;11.32;81.43
82575;BME280;72260;65.870;13.210;2023-09-19T07:29:30;98598.06;;;11.32;81.89
82575;BME280;72260;65.870;13.210;2023-09-19T07:31:56;98592.47;;;11.35;81.54
82575;BME280;72260;65.870;13.210;2023-09-19T07:34:21;98583.56;;;11.36;81.82
82575;BME280;72260;65.870;13.210;2023-09-19T07:36:48;98587.84;;;11.55;81.81
82575;BME280;72260;65.870;13.210;2023-09-19T07:39:13;98570.69;;;11.59;81.39
82575;BME280;72260;65.870;13.210;2023-09-19T07:41:39;98574.69;;;11.63;81.58
82575;BME280;72260;65.870;13.210;2023-09-19T07:44:04;98565.22;;;11.42;81.16
82575;BME280;72260;65.870;13.210;2023-09-19T07:46:30;98563.06;;;11.56;80.69
82575;BME280;72260;65.870;13.210;2023-09-19T07:48:57;98564.94;;;11.45;82.33
82575;BME280;72260;65.870;13.210;2023-09-19T07:51:23;98562.38;;;11.36;82.71
82575;BME280;72260;65.870;13.210;2023-09-19T07:53:48;98561.91;;;11.40;83.26
82575;BME280;72260;65.870;13.210;2023-09-19T07:56:14;98551.41;;;11.49;82.79
82575;BME280;72260;65.870;13.210;2023-09-19T07:58:40;98546.56;;;11.62;82.38
82575;BME280;72260;65.870;13.210;2023-09-19T08:01:10;98558.22;;;11.51;81.31
82575;BME280;72260;65.870;13.210;2023-09-19T08:03:37;98552.47;;;11.56;81.09
82575;BME280;72260;65.870;13.210;2023-09-19T08:06:06;98539.59;;;11.61;79.37
82575;BME280;72260;65.870;13.210;2023-09-19T08:08:32;98524.91;;;11.84;79.46
82575;BME280;72260;65.870;13.210;2023-09-19T08:11:05;98518.78;;;11.84;79.54
82575;BME280;72260;65.870;13.210;2023-09-19T08:13:46;98510.84;;;11.84;80.47
82575;BME280;72260;65.870;13.210;2023-09-19T08:16:15;98519.16;;;11.89;81.91
82575;BME280;72260;65.870;13.210;2023-09-19T08:18:41;98523.38;;;11.99;81.22
82575;BME280;72260;65.870;13.210;2023-09-19T08:21:07;98521.88;;;11.97;81.49
82575;BME280;72260;65.870;13.210;2023-09-19T08:23:35;98509.91;;;11.93;81.26
82575;BME280;72260;65.870;13.210;2023-09-19T08:26:01;98501.38;;;12.07;80.41
82575;BME280;72260;65.870;13.210;2023-09-19T08:28:31;98495.16;;;12.16;79.56
82575;BME280;72260;65.870;13.210;2023-09-19T08:31:04;98496.06;;;11.99;80.68
82575;BME280;72260;65.870;13.210;2023-09-19T08:33:34;98497.72;;;12.00;81.03
82575;BME280;72260;65.870;13.210;2023-09-19T08:36:01;98494.41;;;12.06;80.82
82575;BME280;72260;65.870;13.210;2023-09-19T08:38:26;98499.78;;;12.14;80.56
82575;BME280;72260;65.870;13.210;2023-09-19T08:41:06;98487.19;;;12.16;80.89
82575;BME280;72260;65.870;13.210;2023-09-19T08:43:32;98483.66;;;12.07;81.31
82575;BME280;72260;65.870;13.210;2023-09-19T08:46:12;98486.13;;;12.01;81.47
82575;BME280;72260;65.870;13.210;2023-09-19T08:48:56;98481.81;;;12.00;81.29
82575;BME280;72260;65.870;13.210;2023-09-19T08:51:43;98473.72;;;12.01;80.88
82575;BME280;72260;65.870;13.210;2023-09-19T08:54:34;98474.31;;;12.21;80.83
82575;BME280;72260;65.870;13.210;2023-09-19T08:57:06;98471.19;;;12.26;81.12
82575;BME280;72260;65.870;13.210;2023-09-19T08:59:43;98466.72;;;12.26;81.05
82575;BME280;72260;65.870;13.210;2023-09-19T09:02:14;98459.66;;;12.09;81.77
82575;BME280;72260;65.870;13.210;2023-09-19T09:04:46;98449.16;;;12.25;81.31
82575;BME280;72260;65.870;13.210;2023-09-19T09:07:14;98448.03;;;12.36;80.25
82575;BME280;72260;65.870;13.210;2023-09-19T09:09:43;98430.44;;;12.85;76.46
82575;BME280;72260;65.870;13.210;2023-09-19T09:12:11;98439.25;;;12.35;79.63
82575;BME280;72260;65.870;13.210;2023-09-19T09:14:38;98437.94;;;12.31;80.21
82575;BME280;72260;65.870;13.210;2023-09-19T09:17:03;98413.75;;;12.34;80.21
82575;BME280;72260;65.870;13.210;2023-09-19T09:19:30;98411.56;;;12.22;80.60
82575;BME280;72260;65.870;13.210;2023-09-19T09:22:08;98412.69;;;12.19;81.10
82575;BME280;72260;65.870;13.210;2023-09-19T09:24:34;98416.22;;;12.36;81.14
82575;BME280;72260;65.870;13.210;2023-09-19T09:27:03;98408.78;;;12.39;81.42
82575;BME280;72260;65.870;13.210;2023-09-19T09:29:43;98389.25;;;12.40;81.28
82575;BME280;72260;65.870;13.210;2023-09-19T09:32:29;98384.94;;;12.39;80.74
82575;BME280;72260;65.870;13.210;2023-09-19T09:35:01;98388.44;;;12.48;80.83
82575;BME280;72260;65.870;13.210;2023-09-19T09:37:28;98371.56;;;12.57;80.30
82575;BME280;72260;65.870;13.210;2023-09-19T09:39:56;98370.75;;;12.65;80.72
82575;BME280;72260;65.870;13.210;2023-09-19T09:42:36;98362.47;;;12.60;80.92
82575;BME280;72260;65.870;13.210;2023-09-19T09:47:46;98348.84;;;12.71;81.68
82575;BME280;72260;65.870;13.210;2023-09-19T09:50:25;98346.53;;;12.76;81.59
82575;BME280;72260;65.870;13.210;2023-09-19T09:52:55;98349.56;;;12.97;81.06
82575;BME280;72260;65.870;13.210;2023-09-19T09:56:07;98326.47;;;13.14;80.67
82575;BME280;72260;65.870;13.210;2023-09-19T09:58:35;98331.97;;;13.21;80.64
82575;BME280;72260;65.870;13.210;2023-09-19T10:01:02;98333.81;;;13.20;80.47
82575;BME280;72260;65.870;13.210;2023-09-19T10:03:40;98328.81;;;13.25;79.57
82575;BME280;72260;65.870;13.210;2023-09-19T10:06:12;98321.34;;;13.12;79.29
82575;BME280;72260;65.870;13.210;2023-09-19T10:09:09;98328.63;;;13.02;80.14
82575;BME280;72260;65.870;13.210;2023-09-19T10:12:05;98304.72;;;13.35;75.81
82575;BME280;72260;65.870;13.210;2023-09-19T10:14:35;98312.06;;;13.17;76.38
82575;BME280;72260;65.870;13.210;2023-09-19T10:17:02;98308.06;;;13.12;79.29
82575;BME280;72260;65.870;13.210;2023-09-19T10:22:05;98296.47;;;13.30;79.22
82575;BME280;72260;65.870;13.210;2023-09-19T10:24:35;98295.41;;;13.47;78.47
82575;BME280;72260;65.870;13.210;2023-09-19T10:27:03;98301.88;;;13.44;79.21
82575;BME280;72260;65.870;13.210;2023-09-19T10:29:32;98286.44;;;13.48;77.45
82575;BME280;72260;65.870;13.210;2023-09-19T10:31:58;98287.09;;;13.50;79.24
82575;BME280;72260;65.870;13.210;2023-09-19T10:34:25;98286.03;;;13.67;79.10
82575;BME280;72260;65.870;13.210;2023-09-19T10:36:52;98287.19;;;13.73;78.33
82575;BME280;72260;65.870;13.210;2023-09-19T10:39:19;98264.22;;;13.88;76.78
82575;BME280;72260;65.870;13.210;2023-09-19T10:41:50;98266.88;;;13.88;77.43
82575;BME280;72260;65.870;13.210;2023-09-19T10:44:25;98263.69;;;13.93;76.86
82575;BME280;72260;65.870;13.210;2023-09-19T10:46:52;98256.66;;;14.00;76.50
82575;BME280;72260;65.870;13.210;2023-09-19T10:49:20;98255.75;;;13.85;78.44
82575;BME280;72260;65.870;13.210;2023-09-19T10:51:47;98245.25;;;13.91;79.52
82575;BME280;72260;65.870;13.210;2023-09-19T10:54:17;98245.91;;;13.93;79.44
82575;BME280;72260;65.870;13.210;2023-09-19T10:56:48;98235.94;;;13.95;79.22
82575;BME280;72260;65.870;13.210;2023-09-19T10:59:17;98221.59;;;14.04;79.23
82575;BME280;72260;65.870;13.210;2023-09-19T11:01:44;98211.50;;;14.23;78.44
82575;BME280;72260;65.870;13.210;2023-09-19T11:04:32;98198.09;;;14.16;76.12
82575;BME280;72260;65.870;13.210;2023-09-19T11:07:02;98200.03;;;14.22;76.77
82575;BME280;72260;65.870;13.210;2023-09-19T11:12:12;98196.50;;;14.53;74.97
82575;BME280;72260;65.870;13.210;2023-09-19T11:14:41;98191.03;;;14.84;74.07
82575;BME280;72260;65.870;13.210;2023-09-19T11:23:17;98175.19;;;15.20;69.99
82575;BME280;72260;65.870;13.210;2023-09-19T11:25:43;98165.91;;;15.16;70.21
82575;BME280;72260;65.870;13.210;2023-09-19T11:30:51;98158.59;;;15.39;72.19
82575;BME280;72260;65.870;13.210;2023-09-19T11:33:30;98148.88;;;15.31;71.21
82575;BME280;72260;65.870;13.210;2023-09-19T11:36:17;98153.19;;;15.32;71.70
82575;BME280;72260;65.870;13.210;2023-09-19T11:43:54;98129.91;;;15.70;73.76
82575;BME280;72260;65.870;13.210;2023-09-19T11:49:17;98113.50;;;15.88;71.08
82575;BME280;72260;65.870;13.210;2023-09-19T11:51:50;98106.69;;;15.86;72.62
82575;BME280;72260;65.870;13.210;2023-09-19T11:54:17;98123.31;;;15.88;73.10
82575;BME280;72260;65.870;13.210;2023-09-19T11:56:51;98112.13;;;15.99;69.74
82575;BME280;72260;65.870;13.210;2023-09-19T11:59:29;98108.25;;;16.01;68.82
82575;BME280;72260;65.870;13.210;2023-09-19T12:01:58;98101.19;;;15.87;65.69
82575;BME280;72260;65.870;13.210;2023-09-19T12:04:35;98094.50;;;15.98;68.45
82575;BME280;72260;65.870;13.210;2023-09-19T12:07:10;98091.81;;;16.19;65.90
82575;BME280;72260;65.870;13.210;2023-09-19T12:09:41;98072.13;;;16.20;68.16
82575;BME280;72260;65.870;13.210;2023-09-19T12:12:10;98064.88;;;16.70;64.49
82575;BME280;72260;65.870;13.210;2023-09-19T12:14:38;98066.84;;;16.89;65.56
82575;BME280;72260;65.870;13.210;2023-09-19T12:17:04;98058.72;;;17.10;64.33
82575;BME280;72260;65.870;13.210;2023-09-19T12:19:30;98055.84;;;17.12;62.18
82575;BME280;72260;65.870;13.210;2023-09-19T12:24:26;98042.22;;;16.59;66.52
82575;BME280;72260;65.870;13.210;2023-09-19T12:26:59;98034.53;;;16.43;68.08
82575;BME280;72260;65.870;13.210;2023-09-19T12:29:27;98023.75;;;16.23;70.23
82575;BME280;72260;65.870;13.210;2023-09-19T12:31:54;98020.47;;;16.21;67.69
82575;BME280;72260;65.870;13.210;2023-09-19T12:34:33;98006.69;;;15.90;71.01
82575;BME280;72260;65.870;13.210;2023-09-19T12:37:16;98003.34;;;15.81;70.83
82575;BME280;72260;65.870;13.210;2023-09-19T12:39:52;98005.22;;;15.59;70.67
82575;BME280;72260;65.870;13.210;2023-09-19T12:42:24;97994.84;;;15.50;71.57
82575;BME280;72260;65.870;13.210;2023-09-19T12:44:54;97994.94;;;15.56;70.73
82575;BME280;72260;65.870;13.210;2023-09-19T12:47:23;97989.84;;;15.40;74.03
82575;BME280;72260;65.870;13.210;2023-09-19T12:52:40;97982.91;;;15.67;74.37
82575;BME280;72260;65.870;13.210;2023-09-19T12:55:06;97974.22;;;15.79;71.15
82575;BME280;72260;65.870;13.210;2023-09-19T12:57:35;97980.06;;;15.96;70.45
82575;BME280;72260;65.870;13.210;2023-09-19T13:00:04;97960.97;;;15.93;72.60
82575;BME280;72260;65.870;13.210;2023-09-19T13:02:37;97949.66;;;15.84;73.23
82575;BME280;72260;65.870;13.210;2023-09-19T13:05:03;97954.03;;;15.92;71.19
82575;BME280;72260;65.870;13.210;2023-09-19T13:07:42;97949.06;;;16.17;70.76
82575;BME280;72260;65.870;13.210;2023-09-19T13:10:10;97946.44;;;16.23;67.37
82575;BME280;72260;65.870;13.210;2023-09-19T13:12:38;97935.75;;;16.23;66.80
82575;BME280;72260;65.870;13.210;2023-09-19T13:15:12;97931.88;;;16.32;68.72
82575;BME280;72260;65.870;13.210;2023-09-19T13:17:49;97923.25;;;16.30;68.16
82575;BME280;72260;65.870;13.210;2023-09-19T13:20:25;97916.31;;;16.36;69.57
82575;BME280;72260;65.870;13.210;2023-09-19T13:22:53;97913.56;;;16.64;69.26
82575;BME280;72260;65.870;13.210;2023-09-19T13:25:21;97906.72;;;16.48;68.77
82575;BME280;72260;65.870;13.210;2023-09-19T13:27:52;97900.16;;;16.44;70.92
82575;BME280;72260;65.870;13.210;2023-09-19T13:30:20;97894.22;;;16.49;69.71
82575;BME280;72260;65.870;13.210;2023-09-19T13:32:46;97887.13;;;16.28;70.27
82575;BME280;72260;65.870;13.210;2023-09-19T13:35:15;97878.94;;;16.23;70.52
82575;BME280;72260;65.870;13.210;2023-09-19T13:37:41;97882.34;;;16.10;71.99
82575;BME280;72260;65.870;13.210;2023-09-19T13:40:09;97871.34;;;16.20;73.22